sensor_id;sensor_type;location;lat;lon;timestamp;pressure;altitude;pressure_sealevel;temperature;humidity
19457;BME280;9867;48.094;11.478;2022-10-31T00:01:26;95637.81;;;10.14;100.00
19457;BME280;9867;48.094;11.478;2022-10-31T00:03:56;95624.19;;;10.14;100.00
19457;BME280;9867;48.094;11.478;2022-10-31T00:06:24;95632.47;;;10.16;100.00
19457;BME280;9867;48.094;11.478;2022-10-31T00:08:53;95634.16;;;12.52;100.00
19457;BME280;9867;48.094;11.478;2022-10-31T00:11:22;95646.31;;;13.17;100.00
19457;BME280;9867;48.094;11.478;2022-10-31T00:13:50;95656.09;;;13.86;100.00
19457;BME280;9867;48.094;11.478;2022-10-31T00:16:19;95658.38;;;13.37;100.00
19457;BME280;9867;48.094;11.478;2022-10-31T00:18:48;95661.34;;;12.87;100.00
19457;BME280;9867;48.094;11.478;2022-10-31T00:21:18;95650.59;;;12.44;100.00
19457;BME280;9867;48.094;11.478;2022-10-31T00:23:46;95651.44;;;12.64;100.00
19457;BME280;9867;48.094;11.478;2022-10-31T00:26:14;95655.81;;;13.10;100.00
19457;BME280;9867;48.094;11.478;2022-10-31T00:28:42;95651.63;;;13.09;100.00
19457;BME280;9867;48.094;11.478;2022-10-31T00:31:11;95664.31;;;13.04;100.00
19457;BME280;9867;48.094;11.478;2022-10-31T00:33:40;95650.03;;;12.62;100.00
19457;BME280;9867;48.094;11.478;2022-10-31T00:36:14;95647.25;;;12.57;100.00
19457;BME280;9867;48.094;11.478;2022-10-31T00:38:45;95650.78;;;12.36;100.00
19457;BME280;9867;48.094;11.478;2022-10-31T00:41:15;95645.63;;;12.36;100.00
19457;BME280;9867;48.094;11.478;2022-10-31T00:43:43;95652.94;;;12.26;100.00
19457;BME280;9867;48.094;11.478;2022-10-31T00:46:12;95653.94;;;11.84;100.00
19457;BME280;9867;48.094;11.478;2022-10-31T00:48:40;95652.38;;;11.83;100.00
19457;BME280;9867;48.094;11.478;2022-10-31T00:51:09;95650.66;;;11.97;100.00
19457;BME280;9867;48.094;11.478;2022-10-31T00:53:38;95652.19;;;12.45;100.00
19457;BME280;9867;48.094;11.478;2022-10-31T00:56:08;95652.63;;;12.69;100.00
19457;BME280;9867;48.094;11.478;2022-10-31T00:58:35;95652.22;;;12.72;100.00
19457;BME280;9867;48.094;11.478;2022-10-31T01:01:04;95648.81;;;12.45;100.00
19457;BME280;9867;48.094;11.478;2022-10-31T01:03:34;95653.94;;;12.25;100.00
19457;BME280;9867;48.094;11.478;2022-10-31T01:06:04;95648.22;;;12.56;100.00
19457;BME280;9867;48.094;11.478;2022-10-31T01:08:33;95647.28;;;12.70;100.00
19457;BME280;9867;48.094;11.478;2022-10-31T01:11:04;95638.16;;;12.87;100.00
19457;BME280;9867;48.094;11.478;2022-10-31T01:13:34;95641.72;;;12.80;100.00
19457;BME280;9867;48.094;11.478;2022-10-31T01:16:04;95639.38;;;12.72;100.00
19457;BME280;9867;48.094;11.478;2022-10-31T01:18:33;95638.16;;;13.07;100.00
19457;BME280;9867;48.094;11.478;2022-10-31T01:21:03;95645.69;;;12.69;100.00
19457;BME280;9867;48.094;11.478;2022-10-31T01:23:31;95640.75;;;12.74;100.00
19457;BME280;9867;48.094;11.478;2022-10-31T01:26:03;95642.31;;;12.62;100.00
19457;BME280;9867;48.094;11.478;2022-10-31T01:28:34;95646.03;;;12.53;100.00
19457;BME280;9867;48.094;11.478;2022-10-31T01:31:04;95647.66;;;12.67;100.00
19457;BME280;9867;48.094;11.478;2022-10-31T01:33:33;95647.47;;;12.69;100.00
19457;BME280;9867;48.094;11.478;2022-10-31T01:36:10;95642.03;;;12.30;100.00
19457;BME280;9867;48.094;11.478;2022-10-31T01:38:38;95640.44;;;12.16;100.00
19457;BME280;9867;48.094;11.478;2022-10-31T01:41:07;95643.78;;;12.10;100.00
19457;BME280;9867;48.094;11.478;2022-10-31T01:43:47;95651.06;;;12.00;100.00
19457;BME280;9867;48.094;11.478;2022-10-31T01:46:18;95647.72;;;12.00;100.00
19457;BME280;9867;48.094;11.478;2022-10-31T01:48:48;95640.50;;;11.82;100.00
19457;BME280;9867;48.094;11.478;2022-10-31T01:51:18;95638.25;;;11.72;100.00
19457;BME280;9867;48.094;11.478;2022-10-31T01:53:49;95638.88;;;11.74;100.00
19457;BME280;9867;48.094;11.478;2022-10-31T01:56:18;95645.13;;;12.00;100.00
19457;BME280;9867;48.094;11.478;2022-10-31T01:58:47;95644.22;;;12.20;100.00
19457;BME280;9867;48.094;11.478;2022-10-31T02:01:16;95631.94;;;12.16;100.00
19457;BME280;9867;48.094;11.478;2022-10-31T02:03:46;95636.81;;;11.98;100.00
19457;BME280;9867;48.094;11.478;2022-10-31T02:06:21;95642.41;;;12.14;100.00
19457;BME280;9867;48.094;11.478;2022-10-31T02:08:53;95652.75;;;12.27;100.00
19457;BME280;9867;48.094;11.478;2022-10-31T02:11:22;95649.28;;;12.07;100.00
19457;BME280;9867;48.094;11.478;2022-10-31T02:13:54;95643.78;;;12.04;100.00
19457;BME280;9867;48.094;11.478;2022-10-31T02:16:22;95642.97;;;12.03;100.00
19457;BME280;9867;48.094;11.478;2022-10-31T02:18:51;95645.19;;;12.19;100.00
19457;BME280;9867;48.094;11.478;2022-10-31T02:21:23;95640.97;;;12.05;100.00
19457;BME280;9867;48.094;11.478;2022-10-31T02:24:12;95637.72;;;11.83;100.00
19457;BME280;9867;48.094;11.478;2022-10-31T02:26:52;95638.56;;;11.90;100.00
19457;BME280;9867;48.094;11.478;2022-10-31T02:32:42;95636.44;;;12.07;100.00
19457;BME280;9867;48.094;11.478;2022-10-31T02:35:14;95630.53;;;12.13;100.00
19457;BME280;9867;48.094;11.478;2022-10-31T02:37:55;95629.91;;;11.98;100.00
19457;BME280;9867;48.094;11.478;2022-10-31T02:40:26;95632.66;;;11.97;100.00
19457;BME280;9867;48.094;11.478;2022-10-31T02:43:26;95624.03;;;12.17;100.00
19457;BME280;9867;48.094;11.478;2022-10-31T02:45:58;95631.91;;;12.09;100.00
19457;BME280;9867;48.094;11.478;2022-10-31T02:48:34;95634.28;;;12.11;100.00
19457;BME280;9867;48.094;11.478;2022-10-31T02:51:05;95650.03;;;11.88;100.00
19457;BME280;9867;48.094;11.478;2022-10-31T02:53:36;95645.09;;;11.52;100.00
19457;BME280;9867;48.094;11.478;2022-10-31T02:56:11;95625.72;;;11.21;100.00
19457;BME280;9867;48.094;11.478;2022-10-31T02:58:42;95644.16;;;11.66;100.00
19457;BME280;9867;48.094;11.478;2022-10-31T03:01:33;95645.16;;;11.37;100.00
19457;BME280;9867;48.094;11.478;2022-10-31T03:07:12;95642.16;;;11.27;100.00
19457;BME280;9867;48.094;11.478;2022-10-31T03:09:52;95645.78;;;11.39;100.00
19457;BME280;9867;48.094;11.478;2022-10-31T03:12:27;95643.56;;;11.64;100.00
19457;BME280;9867;48.094;11.478;2022-10-31T03:15:03;95637.34;;;11.86;100.00
19457;BME280;9867;48.094;11.478;2022-10-31T03:17:45;95638.41;;;11.99;100.00
19457;BME280;9867;48.094;11.478;2022-10-31T03:20:21;95638.03;;;12.08;100.00
19457;BME280;9867;48.094;11.478;2022-10-31T03:22:52;95641.34;;;11.95;100.00
19457;BME280;9867;48.094;11.478;2022-10-31T03:25:22;95647.22;;;11.83;100.00
19457;BME280;9867;48.094;11.478;2022-10-31T03:27:55;95629.03;;;11.78;100.00
19457;BME280;9867;48.094;11.478;2022-10-31T03:30:25;95633.31;;;11.71;100.00
19457;BME280;9867;48.094;11.478;2022-10-31T03:32:57;95638.13;;;11.80;100.00
19457;BME280;9867;48.094;11.478;2022-10-31T03:35:30;95631.88;;;11.61;100.00
19457;BME280;9867;48.094;11.478;2022-10-31T03:38:01;95629.06;;;11.50;100.00
19457;BME280;9867;48.094;11.478;2022-10-31T03:40:35;95640.84;;;11.72;100.00
19457;BME280;9867;48.094;11.478;2022-10-31T03:43:06;95637.53;;;11.78;100.00
19457;BME280;9867;48.094;11.478;2022-10-31T03:45:39;95632.59;;;11.77;100.00
19457;BME280;9867;48.094;11.478;2022-10-31T03:48:08;95634.53;;;11.75;100.00
19457;BME280;9867;48.094;11.478;2022-10-31T03:50:40;95639.34;;;11.50;100.00
19457;BME280;9867;48.094;11.478;2022-10-31T03:53:14;95636.81;;;11.63;100.00
19457;BME280;9867;48.094;11.478;2022-10-31T03:55:49;95640.50;;;11.82;100.00
19457;BME280;9867;48.094;11.478;2022-10-31T03:58:21;95640.75;;;11.52;100.00
19457;BME280;9867;48.094;11.478;2022-10-31T04:00:54;95642.94;;;11.55;100.00
19457;BME280;9867;48.094;11.478;2022-10-31T04:03:25;95638.69;;;11.76;100.00
19457;BME280;9867;48.094;11.478;2022-10-31T04:06:02;95639.16;;;11.92;100.00
19457;BME280;9867;48.094;11.478;2022-10-31T04:08:36;95636.63;;;12.06;100.00
19457;BME280;9867;48.094;11.478;2022-10-31T04:11:05;95637.56;;;11.91;100.00
19457;BME280;9867;48.094;11.478;2022-10-31T04:13:39;95635.66;;;11.66;100.00
19457;BME280;9867;48.094;11.478;2022-10-31T04:16:14;95634.94;;;11.44;100.00
19457;BME280;9867;48.094;11.478;2022-10-31T04:18:43;95627.59;;;11.41;100.00
19457;BME280;9867;48.094;11.478;2022-10-31T04:21:13;95635.66;;;11.31;100.00
19457;BME280;9867;48.094;11.478;2022-10-31T04:23:43;95635.56;;;11.18;100.00
19457;BME280;9867;48.094;11.478;2022-10-31T04:26:20;95642.13;;;11.20;100.00
19457;BME280;9867;48.094;11.478;2022-10-31T04:28:47;95644.78;;;11.34;100.00
19457;BME280;9867;48.094;11.478;2022-10-31T04:31:16;95643.75;;;11.28;100.00
19457;BME280;9867;48.094;11.478;2022-10-31T04:33:46;95645.28;;;11.22;100.00
19457;BME280;9867;48.094;11.478;2022-10-31T04:36:16;95646.38;;;11.07;100.00
19457;BME280;9867;48.094;11.478;2022-10-31T04:38:44;95647.00;;;11.15;100.00
19457;BME280;9867;48.094;11.478;2022-10-31T04:41:24;95648.53;;;10.82;100.00
19457;BME280;9867;48.094;11.478;2022-10-31T04:43:57;95650.94;;;11.11;100.00
19457;BME280;9867;48.094;11.478;2022-10-31T04:46:26;95640.09;;;10.88;100.00
19457;BME280;9867;48.094;11.478;2022-10-31T04:48:56;95637.03;;;10.99;100.00
19457;BME280;9867;48.094;11.478;2022-10-31T04:51:25;95640.28;;;11.14;100.00
19457;BME280;9867;48.094;11.478;2022-10-31T04:53:54;95638.84;;;11.33;100.00
19457;BME280;9867;48.094;11.478;2022-10-31T04:56:34;95642.78;;;11.70;100.00
19457;BME280;9867;48.094;11.478;2022-10-31T04:59:09;95643.69;;;11.49;100.00
19457;BME280;9867;48.094;11.478;2022-10-31T05:01:53;95640.53;;;11.88;100.00
19457;BME280;9867;48.094;11.478;2022-10-31T05:04:36;95643.97;;;11.68;100.00
19457;BME280;9867;48.094;11.478;2022-10-31T05:07:11;95646.19;;;11.43;100.00
19457;BME280;9867;48.094;11.478;2022-10-31T05:10:02;95653.50;;;11.39;100.00
19457;BME280;9867;48.094;11.478;2022-10-31T05:12:30;95640.72;;;11.18;100.00
19457;BME280;9867;48.094;11.478;2022-10-31T05:15:22;95637.72;;;11.14;100.00
19457;BME280;9867;48.094;11.478;2022-10-31T05:18:09;95637.81;;;11.27;100.00
19457;BME280;9867;48.094;11.478;2022-10-31T05:20:56;95640.00;;;11.31;100.00
19457;BME280;9867;48.094;11.478;2022-10-31T05:23:45;95634.72;;;11.11;100.00
19457;BME280;9867;48.094;11.478;2022-10-31T05:26:14;95638.75;;;11.20;100.00
19457;BME280;9867;48.094;11.478;2022-10-31T05:28:44;95640.34;;;11.21;100.00
19457;BME280;9867;48.094;11.478;2022-10-31T05:31:11;95626.50;;;10.94;100.00
19457;BME280;9867;48.094;11.478;2022-10-31T05:33:41;95626.63;;;11.07;100.00
19457;BME280;9867;48.094;11.478;2022-10-31T05:36:27;95646.22;;;11.15;100.00
19457;BME280;9867;48.094;11.478;2022-10-31T05:38:59;95622.66;;;11.05;100.00
19457;BME280;9867;48.094;11.478;2022-10-31T05:41:33;95629.56;;;11.39;100.00
19457;BME280;9867;48.094;11.478;2022-10-31T05:44:21;95632.19;;;11.45;100.00
19457;BME280;9867;48.094;11.478;2022-10-31T05:46:56;95625.41;;;11.38;100.00
19457;BME280;9867;48.094;11.478;2022-10-31T05:50:04;95625.03;;;11.41;100.00
19457;BME280;9867;48.094;11.478;2022-10-31T05:52:46;95617.38;;;11.47;100.00
19457;BME280;9867;48.094;11.478;2022-10-31T05:55:24;95619.22;;;11.25;100.00
19457;BME280;9867;48.094;11.478;2022-10-31T05:58:02;95625.41;;;11.31;100.00
19457;BME280;9867;48.094;11.478;2022-10-31T06:00:32;95615.81;;;11.18;100.00
19457;BME280;9867;48.094;11.478;2022-10-31T06:03:08;95620.50;;;11.08;100.00
19457;BME280;9867;48.094;11.478;2022-10-31T06:06:02;95620.94;;;11.46;100.00
19457;BME280;9867;48.094;11.478;2022-10-31T06:08:35;95619.16;;;11.47;100.00
19457;BME280;9867;48.094;11.478;2022-10-31T06:11:12;95621.97;;;11.52;100.00
19457;BME280;9867;48.094;11.478;2022-10-31T06:13:59;95621.97;;;11.52;100.00
19457;BME280;9867;48.094;11.478;2022-10-31T06:16:37;95632.44;;;11.22;100.00
19457;BME280;9867;48.094;11.478;2022-10-31T06:19:27;95630.13;;;11.27;100.00
19457;BME280;9867;48.094;11.478;2022-10-31T06:21:55;95624.88;;;11.14;100.00
19457;BME280;9867;48.094;11.478;2022-10-31T06:24:23;95631.84;;;11.20;100.00
19457;BME280;9867;48.094;11.478;2022-10-31T06:27:01;95640.56;;;11.26;100.00
19457;BME280;9867;48.094;11.478;2022-10-31T06:29:29;95633.72;;;11.05;100.00
19457;BME280;9867;48.094;11.478;2022-10-31T06:32:05;95634.38;;;10.86;100.00
19457;BME280;9867;48.094;11.478;2022-10-31T06:34:38;95635.78;;;10.67;100.00
19457;BME280;9867;48.094;11.478;2022-10-31T06:37:07;95634.25;;;10.73;100.00
19457;BME280;9867;48.094;11.478;2022-10-31T06:39:36;95627.81;;;11.11;100.00
19457;BME280;9867;48.094;11.478;2022-10-31T06:42:06;95634.50;;;11.34;100.00
19457;BME280;9867;48.094;11.478;2022-10-31T06:44:34;95630.22;;;11.47;100.00
19457;BME280;9867;48.094;11.478;2022-10-31T06:47:21;95636.53;;;11.45;100.00
19457;BME280;9867;48.094;11.478;2022-10-31T06:49:56;95637.59;;;11.57;100.00
19457;BME280;9867;48.094;11.478;2022-10-31T06:52:25;95627.38;;;11.70;100.00
19457;BME280;9867;48.094;11.478;2022-10-31T06:54:53;95631.59;;;11.78;100.00
19457;BME280;9867;48.094;11.478;2022-10-31T06:57:23;95623.09;;;11.77;100.00
19457;BME280;9867;48.094;11.478;2022-10-31T06:59:51;95638.72;;;11.82;100.00
19457;BME280;9867;48.094;11.478;2022-10-31T07:02:28;95643.06;;;11.82;100.00
19457;BME280;9867;48.094;11.478;2022-10-31T07:04:56;95639.81;;;12.08;100.00
19457;BME280;9867;48.094;11.478;2022-10-31T07:07:24;95634.53;;;12.36;100.00
19457;BME280;9867;48.094;11.478;2022-10-31T07:09:55;95632.41;;;12.46;100.00
19457;BME280;9867;48.094;11.478;2022-10-31T07:12:40;95634.75;;;12.27;100.00
19457;BME280;9867;48.094;11.478;2022-10-31T07:15:08;95632.56;;;12.24;100.00
19457;BME280;9867;48.094;11.478;2022-10-31T07:17:36;95627.47;;;12.51;100.00
19457;BME280;9867;48.094;11.478;2022-10-31T07:20:08;95633.16;;;12.40;100.00
19457;BME280;9867;48.094;11.478;2022-10-31T07:22:36;95628.44;;;12.43;100.00
19457;BME280;9867;48.094;11.478;2022-10-31T07:25:08;95635.56;;;12.41;100.00
19457;BME280;9867;48.094;11.478;2022-10-31T07:27:57;95627.47;;;12.77;100.00
19457;BME280;9867;48.094;11.478;2022-10-31T07:30:26;95635.00;;;12.92;100.00
19457;BME280;9867;48.094;11.478;2022-10-31T07:32:55;95640.16;;;13.12;100.00
19457;BME280;9867;48.094;11.478;2022-10-31T07:35:33;95635.59;;;13.14;100.00
19457;BME280;9867;48.094;11.478;2022-10-31T07:38:07;95643.31;;;13.27;100.00
19457;BME280;9867;48.094;11.478;2022-10-31T07:40:37;95639.94;;;13.26;100.00
19457;BME280;9867;48.094;11.478;2022-10-31T07:43:06;95647.28;;;13.23;100.00
19457;BME280;9867;48.094;11.478;2022-10-31T07:46:02;95646.91;;;13.39;100.00
19457;BME280;9867;48.094;11.478;2022-10-31T07:48:48;95640.50;;;13.48;100.00
19457;BME280;9867;48.094;11.478;2022-10-31T07:51:55;95643.81;;;13.75;100.00
19457;BME280;9867;48.094;11.478;2022-10-31T07:54:41;95638.66;;;13.75;100.00
19457;BME280;9867;48.094;11.478;2022-10-31T07:57:09;95639.16;;;14.04;100.00
19457;BME280;9867;48.094;11.478;2022-10-31T07:59:39;95638.09;;;14.18;100.00
19457;BME280;9867;48.094;11.478;2022-10-31T08:02:07;95642.03;;;14.20;100.00
19457;BME280;9867;48.094;11.478;2022-10-31T08:04:58;95634.50;;;14.19;100.00
19457;BME280;9867;48.094;11.478;2022-10-31T08:07:28;95626.69;;;14.39;100.00
19457;BME280;9867;48.094;11.478;2022-10-31T08:10:03;95631.78;;;14.52;100.00
19457;BME280;9867;48.094;11.478;2022-10-31T08:12:33;95626.69;;;14.70;100.00
19457;BME280;9867;48.094;11.478;2022-10-31T08:15:05;95623.47;;;14.75;100.00
19457;BME280;9867;48.094;11.478;2022-10-31T08:17:34;95611.41;;;14.68;100.00
19457;BME280;9867;48.094;11.478;2022-10-31T08:20:03;95613.72;;;14.77;100.00
19457;BME280;9867;48.094;11.478;2022-10-31T08:22:36;95618.66;;;15.10;100.00
19457;BME280;9867;48.094;11.478;2022-10-31T08:25:09;95616.56;;;15.18;100.00
19457;BME280;9867;48.094;11.478;2022-10-31T08:27:38;95620.31;;;15.22;100.00
19457;BME280;9867;48.094;11.478;2022-10-31T08:30:15;95619.97;;;15.37;100.00
19457;BME280;9867;48.094;11.478;2022-10-31T08:32:59;95621.28;;;15.46;100.00
19457;BME280;9867;48.094;11.478;2022-10-31T08:35:45;95617.84;;;15.71;100.00
19457;BME280;9867;48.094;11.478;2022-10-31T08:38:32;95603.91;;;15.72;100.00
19457;BME280;9867;48.094;11.478;2022-10-31T08:41:00;95607.09;;;15.74;100.00
19457;BME280;9867;48.094;11.478;2022-10-31T08:43:28;95599.47;;;15.79;100.00
19457;BME280;9867;48.094;11.478;2022-10-31T08:45:57;95602.09;;;15.90;100.00
19457;BME280;9867;48.094;11.478;2022-10-31T08:48:27;95602.03;;;15.97;100.00
19457;BME280;9867;48.094;11.478;2022-10-31T08:50:56;95596.91;;;15.90;100.00
19457;BME280;9867;48.094;11.478;2022-10-31T08:53:25;95586.84;;;16.00;100.00
19457;BME280;9867;48.094;11.478;2022-10-31T08:56:12;95580.78;;;16.07;100.00
19457;BME280;9867;48.094;11.478;2022-10-31T08:58:40;95580.19;;;16.23;100.00
19457;BME280;9867;48.094;11.478;2022-10-31T09:01:10;95579.19;;;16.35;100.00
19457;BME280;9867;48.094;11.478;2022-10-31T09:03:39;95585.78;;;16.50;100.00
19457;BME280;9867;48.094;11.478;2022-10-31T09:06:06;95568.44;;;16.62;100.00
19457;BME280;9867;48.094;11.478;2022-10-31T09:08:36;95579.44;;;16.76;100.00
19457;BME280;9867;48.094;11.478;2022-10-31T09:11:05;95585.41;;;16.88;100.00
19457;BME280;9867;48.094;11.478;2022-10-31T09:13:59;95575.72;;;16.95;100.00
19457;BME280;9867;48.094;11.478;2022-10-31T09:16:52;95578.19;;;17.01;100.00
19457;BME280;9867;48.094;11.478;2022-10-31T09:19:25;95576.38;;;17.02;100.00
19457;BME280;9867;48.094;11.478;2022-10-31T09:21:54;95574.59;;;17.14;100.00
19457;BME280;9867;48.094;11.478;2022-10-31T09:24:22;95571.78;;;17.16;100.00
19457;BME280;9867;48.094;11.478;2022-10-31T09:26:51;95570.09;;;17.21;100.00
19457;BME280;9867;48.094;11.478;2022-10-31T09:29:25;95572.34;;;17.06;100.00
19457;BME280;9867;48.094;11.478;2022-10-31T09:31:59;95575.84;;;17.00;100.00
19457;BME280;9867;48.094;11.478;2022-10-31T09:34:28;95572.69;;;16.98;100.00
19457;BME280;9867;48.094;11.478;2022-10-31T09:37:02;95561.19;;;16.94;100.00
19457;BME280;9867;48.094;11.478;2022-10-31T09:39:32;95563.91;;;16.99;100.00
19457;BME280;9867;48.094;11.478;2022-10-31T09:42:20;95552.38;;;16.83;100.00
19457;BME280;9867;48.094;11.478;2022-10-31T09:45:01;95549.81;;;16.95;100.00
19457;BME280;9867;48.094;11.478;2022-10-31T09:47:45;95558.69;;;17.11;100.00
19457;BME280;9867;48.094;11.478;2022-10-31T09:50:34;95548.34;;;17.22;100.00
19457;BME280;9867;48.094;11.478;2022-10-31T09:53:27;95551.13;;;17.32;100.00
19457;BME280;9867;48.094;11.478;2022-10-31T09:55:58;95551.97;;;17.61;100.00
19457;BME280;9867;48.094;11.478;2022-10-31T09:58:29;95545.44;;;17.70;100.00
19457;BME280;9867;48.094;11.478;2022-10-31T10:01:04;95545.25;;;17.89;100.00
19457;BME280;9867;48.094;11.478;2022-10-31T10:03:36;95552.97;;;18.12;100.00
19457;BME280;9867;48.094;11.478;2022-10-31T10:06:29;95543.97;;;18.20;100.00
19457;BME280;9867;48.094;11.478;2022-10-31T10:09:29;95540.31;;;18.32;100.00
19457;BME280;9867;48.094;11.478;2022-10-31T10:12:33;95546.84;;;18.35;100.00
19457;BME280;9867;48.094;11.478;2022-10-31T10:15:23;95547.66;;;18.52;100.00
19457;BME280;9867;48.094;11.478;2022-10-31T10:18:01;95552.41;;;18.72;100.00
19457;BME280;9867;48.094;11.478;2022-10-31T10:20:39;95549.78;;;18.55;100.00
19457;BME280;9867;48.094;11.478;2022-10-31T10:23:23;95550.00;;;18.54;100.00
19457;BME280;9867;48.094;11.478;2022-10-31T10:26:01;95535.69;;;18.51;100.00
19457;BME280;9867;48.094;11.478;2022-10-31T10:28:38;95537.03;;;18.70;100.00
19457;BME280;9867;48.094;11.478;2022-10-31T10:31:11;95529.97;;;18.83;100.00
19457;BME280;9867;48.094;11.478;2022-10-31T10:33:44;95538.91;;;18.92;100.00
19457;BME280;9867;48.094;11.478;2022-10-31T10:36:21;95540.00;;;18.96;100.00
19457;BME280;9867;48.094;11.478;2022-10-31T10:38:51;95525.34;;;19.06;100.00
19457;BME280;9867;48.094;11.478;2022-10-31T10:41:23;95531.94;;;19.14;100.00
19457;BME280;9867;48.094;11.478;2022-10-31T10:43:56;95523.19;;;19.20;100.00
19457;BME280;9867;48.094;11.478;2022-10-31T10:46:28;95521.72;;;18.91;100.00
19457;BME280;9867;48.094;11.478;2022-10-31T10:49:18;95524.22;;;19.19;100.00
19457;BME280;9867;48.094;11.478;2022-10-31T10:51:54;95519.38;;;19.28;100.00
19457;BME280;9867;48.094;11.478;2022-10-31T10:54:49;95519.19;;;19.13;100.00
19457;BME280;9867;48.094;11.478;2022-10-31T10:57:29;95509.59;;;19.35;100.00
19457;BME280;9867;48.094;11.478;2022-10-31T11:00:15;95508.66;;;19.46;100.00
19457;BME280;9867;48.094;11.478;2022-10-31T11:02:44;95495.19;;;19.49;100.00
19457;BME280;9867;48.094;11.478;2022-10-31T11:05:22;95502.94;;;19.66;100.00
19457;BME280;9867;48.094;11.478;2022-10-31T11:07:52;95497.31;;;19.74;100.00
19457;BME280;9867;48.094;11.478;2022-10-31T11:10:20;95493.75;;;19.85;100.00
19457;BME280;9867;48.094;11.478;2022-10-31T11:13:04;95497.88;;;20.08;100.00
19457;BME280;9867;48.094;11.478;2022-10-31T11:15:36;95488.94;;;20.26;100.00
19457;BME280;9867;48.094;11.478;2022-10-31T11:18:05;95493.59;;;20.51;100.00
19457;BME280;9867;48.094;11.478;2022-10-31T11:20:34;95490.31;;;20.65;100.00
19457;BME280;9867;48.094;11.478;2022-10-31T11:23:18;95491.09;;;20.66;100.00
19457;BME280;9867;48.094;11.478;2022-10-31T11:25:51;95480.88;;;20.59;100.00
19457;BME280;9867;48.094;11.478;2022-10-31T11:28:20;95480.72;;;20.71;100.00
19457;BME280;9867;48.094;11.478;2022-10-31T11:30:50;95476.56;;;20.75;100.00
19457;BME280;9867;48.094;11.478;2022-10-31T11:33:24;95477.59;;;20.79;100.00
19457;BME280;9867;48.094;11.478;2022-10-31T11:35:54;95467.25;;;20.47;100.00
19457;BME280;9867;48.094;11.478;2022-10-31T11:38:33;95463.19;;;20.29;100.00
19457;BME280;9867;48.094;11.478;2022-10-31T11:41:09;95460.41;;;20.41;100.00
19457;BME280;9867;48.094;11.478;2022-10-31T11:43:39;95455.28;;;20.56;100.00
19457;BME280;9867;48.094;11.478;2022-10-31T11:46:09;95460.31;;;20.63;100.00
19457;BME280;9867;48.094;11.478;2022-10-31T11:48:38;95457.91;;;20.56;100.00
19457;BME280;9867;48.094;11.478;2022-10-31T11:51:06;95455.81;;;20.53;100.00
19457;BME280;9867;48.094;11.478;2022-10-31T11:53:36;95456.28;;;20.45;100.00
19457;BME280;9867;48.094;11.478;2022-10-31T11:56:10;95453.88;;;20.38;100.00
19457;BME280;9867;48.094;11.478;2022-10-31T11:58:41;95442.69;;;20.11;100.00
19457;BME280;9867;48.094;11.478;2022-10-31T12:01:24;95433.03;;;20.06;100.00
19457;BME280;9867;48.094;11.478;2022-10-31T12:04:00;95425.56;;;19.88;100.00
19457;BME280;9867;48.094;11.478;2022-10-31T12:06:34;95435.59;;;19.74;100.00
19457;BME280;9867;48.094;11.478;2022-10-31T12:09:17;95428.53;;;19.70;100.00
19457;BME280;9867;48.094;11.478;2022-10-31T12:11:53;95419.63;;;19.66;100.00
19457;BME280;9867;48.094;11.478;2022-10-31T12:14:30;95424.78;;;19.61;100.00
19457;BME280;9867;48.094;11.478;2022-10-31T12:17:08;95427.66;;;19.59;100.00
19457;BME280;9867;48.094;11.478;2022-10-31T12:19:43;95425.00;;;19.54;100.00
19457;BME280;9867;48.094;11.478;2022-10-31T12:22:24;95434.47;;;19.65;100.00
19457;BME280;9867;48.094;11.478;2022-10-31T12:25:10;95421.38;;;19.55;100.00
19457;BME280;9867;48.094;11.478;2022-10-31T12:27:56;95424.06;;;19.65;100.00
19457;BME280;9867;48.094;11.478;2022-10-31T12:30:29;95423.91;;;19.77;100.00
19457;BME280;9867;48.094;11.478;2022-10-31T12:33:15;95421.44;;;19.92;100.00
19457;BME280;9867;48.094;11.478;2022-10-31T12:35:51;95419.88;;;20.23;100.00
19457;BME280;9867;48.094;11.478;2022-10-31T12:38:47;95421.59;;;20.45;100.00
19457;BME280;9867;48.094;11.478;2022-10-31T12:41:28;95410.41;;;20.44;100.00
19457;BME280;9867;48.094;11.478;2022-10-31T12:44:06;95413.25;;;20.10;100.00
19457;BME280;9867;48.094;11.478;2022-10-31T12:46:51;95406.22;;;20.11;100.00
19457;BME280;9867;48.094;11.478;2022-10-31T12:49:31;95404.09;;;20.40;100.00
19457;BME280;9867;48.094;11.478;2022-10-31T12:52:12;95397.47;;;20.64;100.00
19457;BME280;9867;48.094;11.478;2022-10-31T12:54:54;95391.00;;;20.72;100.00
19457;BME280;9867;48.094;11.478;2022-10-31T12:57:30;95386.50;;;20.62;100.00
19457;BME280;9867;48.094;11.478;2022-10-31T13:00:02;95381.34;;;20.67;100.00
19457;BME280;9867;48.094;11.478;2022-10-31T13:02:41;95378.78;;;20.77;100.00
19457;BME280;9867;48.094;11.478;2022-10-31T13:05:14;95381.63;;;20.71;100.00
19457;BME280;9867;48.094;11.478;2022-10-31T13:07:46;95376.41;;;20.34;100.00
19457;BME280;9867;48.094;11.478;2022-10-31T13:10:20;95374.50;;;19.87;100.00
19457;BME280;9867;48.094;11.478;2022-10-31T13:12:53;95375.31;;;19.88;100.00
19457;BME280;9867;48.094;11.478;2022-10-31T13:15:25;95373.81;;;19.65;100.00
19457;BME280;9867;48.094;11.478;2022-10-31T13:17:56;95373.00;;;19.64;100.00
19457;BME280;9867;48.094;11.478;2022-10-31T13:20:28;95363.06;;;19.56;100.00
19457;BME280;9867;48.094;11.478;2022-10-31T13:23:05;95357.88;;;19.56;100.00
19457;BME280;9867;48.094;11.478;2022-10-31T13:25:59;95364.50;;;19.47;100.00
19457;BME280;9867;48.094;11.478;2022-10-31T13:28:34;95353.81;;;19.43;100.00
19457;BME280;9867;48.094;11.478;2022-10-31T13:31:03;95353.50;;;19.40;100.00
19457;BME280;9867;48.094;11.478;2022-10-31T13:33:34;95354.03;;;19.42;100.00
19457;BME280;9867;48.094;11.478;2022-10-31T13:36:13;95352.75;;;19.18;100.00